»·PEaware :: N973SE L88-L52

N973SE :: L88-L52

FLIGHT INFORMATION

Flight Status: Arrived
Operator: Privately registered:
United States
More flights under this callsign
Pilot: Stig E. (4778)
Aircraft: CESSNA 310
(C310)
More flights by this aircraft type
Origin: L88 New Cuyama
United States
Destination: L52 Oceano Co
United States
More flights between these airports :: More routes between these airports
Route: FLW
File this flight plan on PilotEdge
Remarks:
Altitude:
(Current/Filed)
6,500ft
Speed:
(Current/Filed)
170kts
Departed: 10-Jan-19 01:00 PM
Arrived: 10-Jan-19 01:58 PM
Distance/Time
Traveled:
47nm/0:57
Distance/Time
To Go:
Arrived

Flight Plot

Page will automatically refresh every two minutes.

Flight plan parsing failed; only flown route is shown


Map Options




Map Legend


Flown Route
Filed Route
Departure Airport
Arrival Airport
Navaid (VOR, NDB)
Fix

Horizontal Profiles

Position Reports

Time Latitude Longitude Heading Altitude Ground
Speed
10-Jan-19 12:31 35.103331 -120.624401 215 15ft 0kts
10-Jan-19 12:32 35.103331 -120.624401 215 15ft 0kts
10-Jan-19 12:33 35.103331 -120.624401 215 15ft 0kts
10-Jan-19 12:34 35.103331 -120.624401 215 15ft 0kts
10-Jan-19 12:35 35.103331 -120.624401 215 15ft 0kts
10-Jan-19 12:36 35.103331 -120.624401 215 15ft 0kts
10-Jan-19 12:37 35.103331 -120.624401 215 15ft 0kts
10-Jan-19 12:38 35.103331 -120.624401 215 15ft 0kts
10-Jan-19 12:39 35.103331 -120.624401 215 15ft 0kts
10-Jan-19 12:40 35.103331 -120.624401 215 15ft 0kts
10-Jan-19 12:41 35.103331 -120.624401 215 15ft 0kts
10-Jan-19 12:42 35.103331 -120.624401 215 15ft 0kts
10-Jan-19 12:43 35.103331 -120.624401 215 15ft 0kts
10-Jan-19 12:44 35.103331 -120.624401 215 15ft 0kts
10-Jan-19 12:45 35.103331 -120.624401 215 15ft 0kts
10-Jan-19 12:46 35.103331 -120.624401 215 15ft 0kts
10-Jan-19 12:47 35.103331 -120.624401 215 15ft 0kts
10-Jan-19 12:48 35.103331 -120.624401 215 15ft 0kts
10-Jan-19 12:49 35.103331 -120.624401 215 15ft 0kts
10-Jan-19 12:50 35.103331 -120.624401 215 15ft 0kts
10-Jan-19 12:51 35.103331 -120.624401 215 15ft 0kts
10-Jan-19 12:52 35.103331 -120.624401 215 15ft 0kts
10-Jan-19 12:53 35.103331 -120.624401 215 15ft 0kts
10-Jan-19 12:54 35.103281 -120.624531 292 15ft 4kts
10-Jan-19 12:55 35.101809 -120.623732 123 15ft 16kts
10-Jan-19 12:56 35.099479 -120.619484 84 17ft 4kts
10-Jan-19 12:57 35.099521 -120.619413 38 17ft 0kts
10-Jan-19 12:58 35.099867 -120.619203 335 17ft 6kts
10-Jan-19 12:59 35.113028 -120.644250 299 987ft 132kts
10-Jan-19 13:00 35.102180 -120.684929 211 2043ft 156kts
10-Jan-19 13:01 35.070912 -120.666238 121 3033ft 149kts
10-Jan-19 13:02 35.049111 -120.623580 121 4029ft 149kts
10-Jan-19 13:03 35.051510 -120.575976 72 5037ft 148kts
10-Jan-19 13:04 35.064516 -120.525155 57 5512ft 174kts
10-Jan-19 13:05 35.084046 -120.468005 74 5509ft 189kts
10-Jan-19 13:06 35.092073 -120.405957 83 5479ft 181kts
10-Jan-19 13:07 35.095149 -120.345531 87 5470ft 177kts
10-Jan-19 13:08 35.096314 -120.285578 88 5471ft 177kts
10-Jan-19 13:09 35.096770 -120.225535 88 5472ft 177kts
10-Jan-19 13:10 35.096930 -120.165395 89 5467ft 178kts
10-Jan-19 13:11 35.096940 -120.109073 89 5455ft 152kts
10-Jan-19 13:12 35.088401 -120.059070 122 5073ft 157kts
10-Jan-19 13:13 35.065464 -120.013253 122 4675ft 158kts
10-Jan-19 13:14 35.042935 -119.966980 122 4187ft 159kts
10-Jan-19 13:15 35.020451 -119.920392 122 3685ft 159kts
10-Jan-19 13:16 34.998340 -119.874665 122 3336ft 148kts
10-Jan-19 13:17 34.980225 -119.832419 112 3343ft 136kts
10-Jan-19 13:18 34.967284 -119.789872 112 3344ft 133kts
10-Jan-19 13:19 34.950176 -119.750473 122 3344ft 131kts
10-Jan-19 13:20 34.932247 -119.712800 122 3349ft 119kts
10-Jan-19 13:21 34.915781 -119.680986 127 3171ft 109kts
10-Jan-19 13:22 34.929644 -119.662084 316 2739ft 107kts
10-Jan-19 13:23 34.940694 -119.687480 298 2166ft 46kts
10-Jan-19 13:24 34.942552 -119.690016 114 2154ft 6kts
10-Jan-19 13:25 34.942632 -119.689846 290 2154ft 0kts
10-Jan-19 13:26 34.942632 -119.689846 290 2154ft 0kts
10-Jan-19 13:27 34.942632 -119.689846 290 2154ft 0kts
10-Jan-19 13:28 34.942632 -119.689846 290 2154ft 0kts
10-Jan-19 13:29 34.942632 -119.689846 290 2154ft 0kts
10-Jan-19 13:30 34.942632 -119.689846 290 2154ft 0kts
10-Jan-19 13:31 34.942632 -119.689846 290 2154ft 0kts
10-Jan-19 13:32 34.942644 -119.689883 291 2154ft 1kts
10-Jan-19 13:33 34.941743 -119.689974 117 2156ft 46kts
10-Jan-19 13:34 34.928019 -119.651382 112 3053ft 165kts
10-Jan-19 13:35 34.889488 -119.639629 215 4045ft 161kts
10-Jan-19 13:36 34.902613 -119.681558 316 5055ft 157kts
10-Jan-19 13:37 34.935593 -119.715874 317 6050ft 153kts
10-Jan-19 13:38 34.970007 -119.750427 318 6457ft 176kts
10-Jan-19 13:39 35.009258 -119.789070 319 6483ft 185kts
10-Jan-19 13:40 35.049645 -119.828557 319 6482ft 187kts
10-Jan-19 13:41 35.090173 -119.867982 319 6485ft 186kts
10-Jan-19 13:42 35.094608 -119.922176 250 6240ft 174kts
10-Jan-19 13:43 35.080870 -119.977279 256 5773ft 167kts
10-Jan-19 13:44 35.071077 -120.031972 259 5368ft 164kts
10-Jan-19 13:45 35.062974 -120.086742 260 4967ft 164kts
10-Jan-19 13:46 35.055579 -120.141484 261 4568ft 164kts
10-Jan-19 13:47 35.048405 -120.196735 262 4169ft 165kts
10-Jan-19 13:48 35.041329 -120.252092 261 3773ft 166kts
10-Jan-19 13:49 35.034239 -120.307782 261 3375ft 166kts
10-Jan-19 13:50 35.027356 -120.361987 261 3006ft 153kts
10-Jan-19 13:51 35.021262 -120.409716 261 3007ft 136kts
10-Jan-19 13:52 35.017401 -120.457262 293 2614ft 149kts
10-Jan-19 13:54 35.038180 -120.499866 301 2261ft 130kts
10-Jan-19 13:55 35.055978 -120.535424 302 1626ft 120kts
10-Jan-19 13:56 35.073026 -120.568548 302 880ft 108kts
10-Jan-19 13:57 35.088388 -120.597850 304 512ft 103kts
10-Jan-19 13:58 35.102545 -120.624221 303 15ft 32kts
10-Jan-19 13:59 35.103345 -120.624397 214 15ft 0kts
10-Jan-19 14:00 35.103345 -120.624396 214 15ft 0kts
10-Jan-19 14:01 35.103345 -120.624396 214 15ft 0kts
10-Jan-19 14:02 35.103345 -120.624396 214 15ft 0kts
10-Jan-19 14:03 35.103345 -120.624396 214 15ft 0kts
10-Jan-19 14:04 35.103345 -120.624396 214 15ft 0kts
10-Jan-19 14:05 35.103345 -120.624396 214 15ft 0kts
10-Jan-19 14:06 35.103345 -120.624396 214 15ft 0kts
10-Jan-19 14:07 35.103345 -120.624396 214 15ft 0kts
10-Jan-19 14:08 35.103345 -120.624396 214 15ft 0kts
10-Jan-19 14:09 35.103345 -120.624396 214 15ft 0kts
10-Jan-19 14:10 35.103345 -120.624396 214 15ft 0kts
10-Jan-19 14:10 35.103345 -120.624396 214 15ft 0kts

Navigation Log

Ident Type
Flight plan parsing failed, navigation log unavailable